sensor_id;sensor_type;location;lat;lon;timestamp;P1;durP1;ratioP1;P2;durP2;ratioP2
40953;SDS011;26686;50.130;8.710;2023-02-17T00:02:37;22.17;;;19.67;;
40953;SDS011;26686;50.130;8.710;2023-02-17T00:07:39;24.92;;;19.48;;
40953;SDS011;26686;50.130;8.710;2023-02-17T00:12:41;21.05;;;18.77;;
40953;SDS011;26686;50.130;8.710;2023-02-17T00:17:42;23.42;;;20.17;;
40953;SDS011;26686;50.130;8.710;2023-02-17T00:22:43;19.77;;;17.80;;
40953;SDS011;26686;50.130;8.710;2023-02-17T00:27:46;20.48;;;18.35;;
40953;SDS011;26686;50.130;8.710;2023-02-17T00:32:47;21.42;;;19.13;;
40953;SDS011;26686;50.130;8.710;2023-02-17T00:37:49;19.38;;;17.38;;
40953;SDS011;26686;50.130;8.710;2023-02-17T00:42:50;20.38;;;18.30;;
40953;SDS011;26686;50.130;8.710;2023-02-17T00:47:54;22.02;;;19.60;;
40953;SDS011;26686;50.130;8.710;2023-02-17T00:52:56;21.00;;;17.70;;
40953;SDS011;26686;50.130;8.710;2023-02-17T00:57:58;21.73;;;19.40;;
40953;SDS011;26686;50.130;8.710;2023-02-17T01:02:59;20.77;;;18.38;;
40953;SDS011;26686;50.130;8.710;2023-02-17T01:08:00;22.27;;;19.98;;
40953;SDS011;26686;50.130;8.710;2023-02-17T01:13:02;21.88;;;19.08;;
40953;SDS011;26686;50.130;8.710;2023-02-17T01:18:03;20.98;;;17.95;;
40953;SDS011;26686;50.130;8.710;2023-02-17T01:23:05;22.58;;;19.63;;
40953;SDS011;26686;50.130;8.710;2023-02-17T01:28:10;21.17;;;18.52;;
40953;SDS011;26686;50.130;8.710;2023-02-17T01:33:15;20.27;;;18.17;;
40953;SDS011;26686;50.130;8.710;2023-02-17T01:38:17;21.98;;;19.38;;
40953;SDS011;26686;50.130;8.710;2023-02-17T01:43:18;18.42;;;16.58;;
40953;SDS011;26686;50.130;8.710;2023-02-17T01:49:02;20.10;;;18.00;;
40953;SDS011;26686;50.130;8.710;2023-02-17T01:54:00;18.45;;;16.42;;
40953;SDS011;26686;50.130;8.710;2023-02-17T01:59:06;18.13;;;16.23;;
40953;SDS011;26686;50.130;8.710;2023-02-17T02:04:12;18.95;;;16.40;;
40953;SDS011;26686;50.130;8.710;2023-02-17T02:09:19;15.40;;;13.75;;
40953;SDS011;26686;50.130;8.710;2023-02-17T02:14:23;20.15;;;14.48;;
40953;SDS011;26686;50.130;8.710;2023-02-17T02:36:14;16.40;;;14.70;;
40953;SDS011;26686;50.130;8.710;2023-02-17T02:41:35;16.02;;;13.85;;
40953;SDS011;26686;50.130;8.710;2023-02-17T02:46:41;15.00;;;13.43;;
40953;SDS011;26686;50.130;8.710;2023-02-17T02:51:45;14.90;;;12.95;;
40953;SDS011;26686;50.130;8.710;2023-02-17T03:02:13;14.73;;;13.23;;
40953;SDS011;26686;50.130;8.710;2023-02-17T03:07:18;14.20;;;12.73;;
40953;SDS011;26686;50.130;8.710;2023-02-17T03:12:25;14.70;;;13.00;;
40953;SDS011;26686;50.130;8.710;2023-02-17T03:17:31;13.43;;;12.07;;
40953;SDS011;26686;50.130;8.710;2023-02-17T03:22:37;11.85;;;10.43;;
40953;SDS011;26686;50.130;8.710;2023-02-17T03:27:41;11.02;;;9.95;;
40953;SDS011;26686;50.130;8.710;2023-02-17T03:32:43;10.45;;;9.20;;
40953;SDS011;26686;50.130;8.710;2023-02-17T03:37:44;10.93;;;9.05;;
40953;SDS011;26686;50.130;8.710;2023-02-17T03:42:46;13.60;;;9.18;;
40953;SDS011;26686;50.130;8.710;2023-02-17T03:47:48;9.60;;;8.35;;
40953;SDS011;26686;50.130;8.710;2023-02-17T03:52:49;9.60;;;8.45;;
40953;SDS011;26686;50.130;8.710;2023-02-17T03:57:51;10.98;;;8.68;;
40953;SDS011;26686;50.130;8.710;2023-02-17T04:02:52;9.63;;;8.15;;
40953;SDS011;26686;50.130;8.710;2023-02-17T04:07:54;9.65;;;8.10;;
40953;SDS011;26686;50.130;8.710;2023-02-17T04:12:55;10.73;;;8.15;;
40953;SDS011;26686;50.130;8.710;2023-02-17T04:17:56;8.55;;;7.57;;
40953;SDS011;26686;50.130;8.710;2023-02-17T04:22:58;9.90;;;7.40;;
40953;SDS011;26686;50.130;8.710;2023-02-17T04:27:59;8.98;;;7.40;;
40953;SDS011;26686;50.130;8.710;2023-02-17T04:33:03;7.93;;;6.90;;
40953;SDS011;26686;50.130;8.710;2023-02-17T04:38:04;7.38;;;6.68;;
40953;SDS011;26686;50.130;8.710;2023-02-17T04:43:06;8.63;;;7.35;;
40953;SDS011;26686;50.130;8.710;2023-02-17T04:48:08;8.35;;;7.55;;
40953;SDS011;26686;50.130;8.710;2023-02-17T04:53:10;9.93;;;8.35;;
40953;SDS011;26686;50.130;8.710;2023-02-17T04:58:11;9.27;;;7.10;;
40953;SDS011;26686;50.130;8.710;2023-02-17T05:03:13;11.60;;;8.25;;
40953;SDS011;26686;50.130;8.710;2023-02-17T05:08:14;8.73;;;7.93;;
40953;SDS011;26686;50.130;8.710;2023-02-17T05:13:16;8.02;;;7.10;;
40953;SDS011;26686;50.130;8.710;2023-02-17T05:18:17;8.68;;;6.93;;
40953;SDS011;26686;50.130;8.710;2023-02-17T05:23:18;10.50;;;8.18;;
40953;SDS011;26686;50.130;8.710;2023-02-17T05:28:22;7.63;;;6.63;;
40953;SDS011;26686;50.130;8.710;2023-02-17T05:33:23;7.22;;;5.93;;
40953;SDS011;26686;50.130;8.710;2023-02-17T05:38:25;6.80;;;6.03;;
40953;SDS011;26686;50.130;8.710;2023-02-17T05:43:26;6.47;;;5.88;;
40953;SDS011;26686;50.130;8.710;2023-02-17T05:48:28;6.57;;;5.97;;
40953;SDS011;26686;50.130;8.710;2023-02-17T05:53:29;9.50;;;6.47;;
40953;SDS011;26686;50.130;8.710;2023-02-17T05:58:31;6.70;;;6.00;;
40953;SDS011;26686;50.130;8.710;2023-02-17T06:03:32;8.13;;;5.80;;
40953;SDS011;26686;50.130;8.710;2023-02-17T06:08:34;6.28;;;5.25;;
40953;SDS011;26686;50.130;8.710;2023-02-17T06:13:36;5.18;;;4.68;;
40953;SDS011;26686;50.130;8.710;2023-02-17T06:18:37;7.22;;;5.05;;
40953;SDS011;26686;50.130;8.710;2023-02-17T06:23:39;5.72;;;5.13;;
40953;SDS011;26686;50.130;8.710;2023-02-17T06:28:40;5.22;;;4.55;;
40953;SDS011;26686;50.130;8.710;2023-02-17T06:33:41;6.30;;;5.00;;
40953;SDS011;26686;50.130;8.710;2023-02-17T06:38:43;5.63;;;4.43;;
40953;SDS011;26686;50.130;8.710;2023-02-17T06:43:44;4.70;;;3.85;;
40953;SDS011;26686;50.130;8.710;2023-02-17T06:48:46;4.25;;;3.85;;
40953;SDS011;26686;50.130;8.710;2023-02-17T06:53:48;4.30;;;3.72;;
40953;SDS011;26686;50.130;8.710;2023-02-17T06:58:49;5.65;;;4.22;;
40953;SDS011;26686;50.130;8.710;2023-02-17T07:03:51;5.90;;;4.65;;
40953;SDS011;26686;50.130;8.710;2023-02-17T07:08:53;4.05;;;3.65;;
40953;SDS011;26686;50.130;8.710;2023-02-17T07:13:55;6.82;;;3.95;;
40953;SDS011;26686;50.130;8.710;2023-02-17T07:18:57;4.82;;;4.07;;
40953;SDS011;26686;50.130;8.710;2023-02-17T07:23:59;4.93;;;3.58;;
40953;SDS011;26686;50.130;8.710;2023-02-17T07:29:00;3.80;;;3.50;;
40953;SDS011;26686;50.130;8.710;2023-02-17T07:34:02;3.72;;;3.42;;
40953;SDS011;26686;50.130;8.710;2023-02-17T07:39:04;3.85;;;3.45;;
40953;SDS011;26686;50.130;8.710;2023-02-17T07:44:07;3.58;;;3.28;;
40953;SDS011;26686;50.130;8.710;2023-02-17T07:49:08;4.65;;;3.60;;
40953;SDS011;26686;50.130;8.710;2023-02-17T07:54:10;4.45;;;4.05;;
40953;SDS011;26686;50.130;8.710;2023-02-17T07:59:13;3.33;;;3.03;;
40953;SDS011;26686;50.130;8.710;2023-02-17T08:04:15;5.00;;;3.38;;
40953;SDS011;26686;50.130;8.710;2023-02-17T08:09:16;5.22;;;3.45;;
40953;SDS011;26686;50.130;8.710;2023-02-17T08:14:36;3.70;;;2.75;;
40953;SDS011;26686;50.130;8.710;2023-02-17T08:19:38;5.25;;;3.13;;
40953;SDS011;26686;50.130;8.710;2023-02-17T08:24:48;2.97;;;2.70;;
40953;SDS011;26686;50.130;8.710;2023-02-17T08:29:50;2.85;;;2.50;;
40953;SDS011;26686;50.130;8.710;2023-02-17T08:34:54;2.85;;;2.60;;
40953;SDS011;26686;50.130;8.710;2023-02-17T08:39:57;3.20;;;2.90;;
40953;SDS011;26686;50.130;8.710;2023-02-17T08:50:05;4.72;;;2.85;;
40953;SDS011;26686;50.130;8.710;2023-02-17T08:55:07;4.07;;;2.80;;
40953;SDS011;26686;50.130;8.710;2023-02-17T09:00:09;3.10;;;2.80;;
40953;SDS011;26686;50.130;8.710;2023-02-17T09:05:13;2.78;;;2.58;;
40953;SDS011;26686;50.130;8.710;2023-02-17T09:10:15;4.10;;;3.20;;
40953;SDS011;26686;50.130;8.710;2023-02-17T09:15:16;3.33;;;2.90;;
40953;SDS011;26686;50.130;8.710;2023-02-17T09:20:18;2.75;;;2.55;;
40953;SDS011;26686;50.130;8.710;2023-02-17T09:25:25;4.07;;;3.40;;
40953;SDS011;26686;50.130;8.710;2023-02-17T09:30:26;3.53;;;3.20;;
40953;SDS011;26686;50.130;8.710;2023-02-17T09:35:28;3.55;;;3.25;;
40953;SDS011;26686;50.130;8.710;2023-02-17T09:40:37;4.78;;;4.07;;
40953;SDS011;26686;50.130;8.710;2023-02-17T09:45:50;4.93;;;4.15;;
40953;SDS011;26686;50.130;8.710;2023-02-17T09:51:00;4.57;;;4.13;;
40953;SDS011;26686;50.130;8.710;2023-02-17T09:56:08;5.47;;;4.00;;
40953;SDS011;26686;50.130;8.710;2023-02-17T10:01:18;5.28;;;4.18;;
40953;SDS011;26686;50.130;8.710;2023-02-17T10:06:23;4.85;;;4.45;;
40953;SDS011;26686;50.130;8.710;2023-02-17T10:11:30;5.65;;;5.10;;
40953;SDS011;26686;50.130;8.710;2023-02-17T10:16:37;5.95;;;5.35;;
40953;SDS011;26686;50.130;8.710;2023-02-17T10:21:50;5.68;;;5.13;;
40953;SDS011;26686;50.130;8.710;2023-02-17T10:27:15;6.20;;;5.40;;
40953;SDS011;26686;50.130;8.710;2023-02-17T10:32:22;6.25;;;5.50;;
40953;SDS011;26686;50.130;8.710;2023-02-17T10:43:02;5.10;;;4.40;;
40953;SDS011;26686;50.130;8.710;2023-02-17T10:48:10;4.88;;;4.38;;
40953;SDS011;26686;50.130;8.710;2023-02-17T10:53:15;5.78;;;4.90;;
40953;SDS011;26686;50.130;8.710;2023-02-17T10:58:37;6.20;;;4.43;;
40953;SDS011;26686;50.130;8.710;2023-02-17T11:03:40;4.78;;;4.20;;
40953;SDS011;26686;50.130;8.710;2023-02-17T11:08:45;5.65;;;4.70;;
40953;SDS011;26686;50.130;8.710;2023-02-17T11:19:05;4.57;;;4.18;;
40953;SDS011;26686;50.130;8.710;2023-02-17T11:24:11;4.43;;;4.03;;
40953;SDS011;26686;50.130;8.710;2023-02-17T11:29:16;4.32;;;3.85;;
40953;SDS011;26686;50.130;8.710;2023-02-17T11:34:23;4.30;;;3.38;;
40953;SDS011;26686;50.130;8.710;2023-02-17T11:39:28;4.18;;;3.78;;
40953;SDS011;26686;50.130;8.710;2023-02-17T11:44:30;5.32;;;3.85;;
40953;SDS011;26686;50.130;8.710;2023-02-17T11:55:35;5.60;;;3.55;;
40953;SDS011;26686;50.130;8.710;2023-02-17T12:05:40;4.15;;;3.33;;
40953;SDS011;26686;50.130;8.710;2023-02-17T12:16:28;4.35;;;3.05;;
40953;SDS011;26686;50.130;8.710;2023-02-17T12:32:11;3.05;;;2.75;;
40953;SDS011;26686;50.130;8.710;2023-02-17T12:37:33;3.42;;;2.40;;
40953;SDS011;26686;50.130;8.710;2023-02-17T12:42:52;2.15;;;1.85;;
40953;SDS011;26686;50.130;8.710;2023-02-17T12:47:59;2.70;;;1.85;;
40953;SDS011;26686;50.130;8.710;2023-02-17T12:53:05;2.92;;;1.80;;
40953;SDS011;26686;50.130;8.710;2023-02-17T12:58:15;2.72;;;1.80;;
40953;SDS011;26686;50.130;8.710;2023-02-17T13:03:19;6.78;;;2.88;;
40953;SDS011;26686;50.130;8.710;2023-02-17T13:08:27;1.52;;;1.27;;
40953;SDS011;26686;50.130;8.710;2023-02-17T13:13:31;1.90;;;1.30;;
40953;SDS011;26686;50.130;8.710;2023-02-17T13:18:34;1.13;;;0.60;;
40953;SDS011;26686;50.130;8.710;2023-02-17T13:23:38;1.20;;;0.90;;
40953;SDS011;26686;50.130;8.710;2023-02-17T13:28:41;2.73;;;1.10;;
40953;SDS011;26686;50.130;8.710;2023-02-17T13:33:47;1.45;;;1.05;;
40953;SDS011;26686;50.130;8.710;2023-02-17T13:38:59;1.73;;;0.93;;
40953;SDS011;26686;50.130;8.710;2023-02-17T13:44:13;1.33;;;1.02;;
40953;SDS011;26686;50.130;8.710;2023-02-17T13:49:25;1.13;;;0.95;;
40953;SDS011;26686;50.130;8.710;2023-02-17T13:54:27;0.97;;;0.90;;
40953;SDS011;26686;50.130;8.710;2023-02-17T13:59:29;1.88;;;1.20;;
40953;SDS011;26686;50.130;8.710;2023-02-17T14:04:30;2.03;;;1.35;;
40953;SDS011;26686;50.130;8.710;2023-02-17T14:09:33;1.60;;;1.33;;
40953;SDS011;26686;50.130;8.710;2023-02-17T14:14:35;2.22;;;0.98;;
40953;SDS011;26686;50.130;8.710;2023-02-17T14:19:46;1.45;;;1.23;;
40953;SDS011;26686;50.130;8.710;2023-02-17T14:25:10;2.20;;;1.33;;
40953;SDS011;26686;50.130;8.710;2023-02-17T14:30:32;1.37;;;0.90;;
40953;SDS011;26686;50.130;8.710;2023-02-17T14:35:36;4.30;;;1.50;;
40953;SDS011;26686;50.130;8.710;2023-02-17T14:40:39;2.15;;;1.60;;
40953;SDS011;26686;50.130;8.710;2023-02-17T14:45:41;1.83;;;1.40;;
40953;SDS011;26686;50.130;8.710;2023-02-17T14:50:42;1.70;;;1.58;;
40953;SDS011;26686;50.130;8.710;2023-02-17T14:55:46;1.83;;;1.65;;
40953;SDS011;26686;50.130;8.710;2023-02-17T15:00:53;1.83;;;1.40;;
40953;SDS011;26686;50.130;8.710;2023-02-17T15:05:55;2.10;;;1.70;;
40953;SDS011;26686;50.130;8.710;2023-02-17T15:10:56;1.90;;;1.15;;
40953;SDS011;26686;50.130;8.710;2023-02-17T15:15:58;1.83;;;0.93;;
40953;SDS011;26686;50.130;8.710;2023-02-17T15:20:59;2.03;;;1.38;;
40953;SDS011;26686;50.130;8.710;2023-02-17T15:26:01;2.58;;;0.98;;
40953;SDS011;26686;50.130;8.710;2023-02-17T15:31:02;1.33;;;1.02;;
40953;SDS011;26686;50.130;8.710;2023-02-17T15:36:04;1.30;;;1.10;;
40953;SDS011;26686;50.130;8.710;2023-02-17T15:41:13;1.70;;;0.90;;
40953;SDS011;26686;50.130;8.710;2023-02-17T15:46:28;0.95;;;0.85;;
40953;SDS011;26686;50.130;8.710;2023-02-17T15:51:31;1.10;;;0.70;;
40953;SDS011;26686;50.130;8.710;2023-02-17T15:56:43;1.48;;;0.60;;
40953;SDS011;26686;50.130;8.710;2023-02-17T16:01:47;1.05;;;0.52;;
40953;SDS011;26686;50.130;8.710;2023-02-17T16:06:48;0.80;;;0.65;;
40953;SDS011;26686;50.130;8.710;2023-02-17T16:11:50;1.52;;;1.15;;
40953;SDS011;26686;50.130;8.710;2023-02-17T16:16:54;0.73;;;0.50;;
40953;SDS011;26686;50.130;8.710;2023-02-17T16:21:55;1.13;;;0.60;;
40953;SDS011;26686;50.130;8.710;2023-02-17T16:26:57;0.95;;;0.40;;
40953;SDS011;26686;50.130;8.710;2023-02-17T16:31:58;0.70;;;0.60;;
40953;SDS011;26686;50.130;8.710;2023-02-17T16:37:00;0.70;;;0.40;;
40953;SDS011;26686;50.130;8.710;2023-02-17T16:42:03;0.93;;;0.50;;
40953;SDS011;26686;50.130;8.710;2023-02-17T16:47:05;1.55;;;0.40;;
40953;SDS011;26686;50.130;8.710;2023-02-17T16:52:24;1.45;;;0.80;;
40953;SDS011;26686;50.130;8.710;2023-02-17T16:57:27;2.30;;;1.05;;
40953;SDS011;26686;50.130;8.710;2023-02-17T17:02:28;0.85;;;0.70;;
40953;SDS011;26686;50.130;8.710;2023-02-17T17:07:30;1.00;;;0.40;;
40953;SDS011;26686;50.130;8.710;2023-02-17T17:12:32;2.10;;;0.65;;
40953;SDS011;26686;50.130;8.710;2023-02-17T17:17:36;0.82;;;0.47;;
40953;SDS011;26686;50.130;8.710;2023-02-17T17:22:41;1.73;;;0.80;;
40953;SDS011;26686;50.130;8.710;2023-02-17T17:27:43;1.42;;;0.85;;
40953;SDS011;26686;50.130;8.710;2023-02-17T17:32:46;1.20;;;1.10;;
40953;SDS011;26686;50.130;8.710;2023-02-17T17:37:47;2.28;;;1.00;;
40953;SDS011;26686;50.130;8.710;2023-02-17T17:42:49;1.58;;;1.17;;
40953;SDS011;26686;50.130;8.710;2023-02-17T17:47:51;1.25;;;1.00;;
40953;SDS011;26686;50.130;8.710;2023-02-17T17:52:53;2.13;;;1.30;;
40953;SDS011;26686;50.130;8.710;2023-02-17T17:57:54;1.88;;;1.27;;
40953;SDS011;26686;50.130;8.710;2023-02-17T18:02:56;0.77;;;0.68;;
40953;SDS011;26686;50.130;8.710;2023-02-17T18:07:57;1.83;;;1.25;;
40953;SDS011;26686;50.130;8.710;2023-02-17T18:12:59;1.85;;;1.30;;
40953;SDS011;26686;50.130;8.710;2023-02-17T18:18:00;1.00;;;0.90;;
40953;SDS011;26686;50.130;8.710;2023-02-17T18:23:02;1.67;;;1.27;;
40953;SDS011;26686;50.130;8.710;2023-02-17T18:28:03;1.40;;;1.17;;
40953;SDS011;26686;50.130;8.710;2023-02-17T18:33:05;2.42;;;1.48;;
40953;SDS011;26686;50.130;8.710;2023-02-17T18:38:06;1.30;;;1.20;;
40953;SDS011;26686;50.130;8.710;2023-02-17T18:43:08;2.35;;;1.25;;
40953;SDS011;26686;50.130;8.710;2023-02-17T18:48:09;1.17;;;1.08;;
40953;SDS011;26686;50.130;8.710;2023-02-17T18:53:10;1.75;;;1.27;;
40953;SDS011;26686;50.130;8.710;2023-02-17T18:58:12;1.33;;;1.17;;
40953;SDS011;26686;50.130;8.710;2023-02-17T19:03:13;1.50;;;1.40;;
40953;SDS011;26686;50.130;8.710;2023-02-17T19:08:15;1.30;;;1.13;;
40953;SDS011;26686;50.130;8.710;2023-02-17T19:13:17;1.70;;;1.60;;
40953;SDS011;26686;50.130;8.710;2023-02-17T19:18:18;1.85;;;1.50;;
40953;SDS011;26686;50.130;8.710;2023-02-17T19:23:20;2.08;;;1.55;;
40953;SDS011;26686;50.130;8.710;2023-02-17T19:28:21;2.00;;;1.80;;
40953;SDS011;26686;50.130;8.710;2023-02-17T19:33:23;2.40;;;1.98;;
40953;SDS011;26686;50.130;8.710;2023-02-17T19:38:27;3.33;;;1.90;;
40953;SDS011;26686;50.130;8.710;2023-02-17T19:43:30;2.33;;;2.13;;
40953;SDS011;26686;50.130;8.710;2023-02-17T19:48:31;2.50;;;2.17;;
40953;SDS011;26686;50.130;8.710;2023-02-17T19:53:33;2.78;;;2.20;;
40953;SDS011;26686;50.130;8.710;2023-02-17T19:58:35;2.63;;;2.10;;
40953;SDS011;26686;50.130;8.710;2023-02-17T20:03:37;3.85;;;2.08;;
40953;SDS011;26686;50.130;8.710;2023-02-17T20:08:39;3.10;;;2.00;;
40953;SDS011;26686;50.130;8.710;2023-02-17T20:13:40;3.35;;;2.58;;
40953;SDS011;26686;50.130;8.710;2023-02-17T20:18:47;2.50;;;2.30;;
40953;SDS011;26686;50.130;8.710;2023-02-17T20:23:51;2.75;;;2.50;;
40953;SDS011;26686;50.130;8.710;2023-02-17T20:28:52;5.43;;;3.22;;
40953;SDS011;26686;50.130;8.710;2023-02-17T20:33:55;4.63;;;3.33;;
40953;SDS011;26686;50.130;8.710;2023-02-17T20:38:57;5.35;;;3.50;;
40953;SDS011;26686;50.130;8.710;2023-02-17T20:43:59;4.03;;;3.63;;
40953;SDS011;26686;50.130;8.710;2023-02-17T20:49:03;3.85;;;3.55;;
40953;SDS011;26686;50.130;8.710;2023-02-17T20:54:04;4.38;;;3.97;;
40953;SDS011;26686;50.130;8.710;2023-02-17T20:59:06;5.88;;;4.47;;
40953;SDS011;26686;50.130;8.710;2023-02-17T21:04:09;4.60;;;4.15;;
40953;SDS011;26686;50.130;8.710;2023-02-17T21:09:12;5.03;;;4.53;;
40953;SDS011;26686;50.130;8.710;2023-02-17T21:14:15;4.53;;;4.00;;
40953;SDS011;26686;50.130;8.710;2023-02-17T21:19:16;5.75;;;4.53;;
40953;SDS011;26686;50.130;8.710;2023-02-17T21:24:19;4.72;;;4.32;;
40953;SDS011;26686;50.130;8.710;2023-02-17T21:29:21;4.57;;;4.18;;
40953;SDS011;26686;50.130;8.710;2023-02-17T21:34:22;4.68;;;3.92;;
40953;SDS011;26686;50.130;8.710;2023-02-17T21:39:24;5.50;;;5.00;;
40953;SDS011;26686;50.130;8.710;2023-02-17T21:44:25;4.60;;;4.20;;
40953;SDS011;26686;50.130;8.710;2023-02-17T21:49:45;4.53;;;4.13;;
40953;SDS011;26686;50.130;8.710;2023-02-17T21:54:47;5.32;;;4.55;;
40953;SDS011;26686;50.130;8.710;2023-02-17T21:59:49;4.55;;;4.15;;
40953;SDS011;26686;50.130;8.710;2023-02-17T22:04:54;3.88;;;3.58;;
40953;SDS011;26686;50.130;8.710;2023-02-17T22:09:59;3.70;;;3.30;;
40953;SDS011;26686;50.130;8.710;2023-02-17T22:15:01;3.65;;;3.35;;
40953;SDS011;26686;50.130;8.710;2023-02-17T22:20:04;4.70;;;4.20;;
40953;SDS011;26686;50.130;8.710;2023-02-17T22:25:06;6.57;;;4.13;;
40953;SDS011;26686;50.130;8.710;2023-02-17T22:30:08;3.95;;;3.55;;
40953;SDS011;26686;50.130;8.710;2023-02-17T22:35:10;4.82;;;4.32;;
40953;SDS011;26686;50.130;8.710;2023-02-17T22:40:11;4.35;;;3.95;;
40953;SDS011;26686;50.130;8.710;2023-02-17T22:45:13;6.22;;;4.55;;
40953;SDS011;26686;50.130;8.710;2023-02-17T22:50:15;4.80;;;4.15;;
40953;SDS011;26686;50.130;8.710;2023-02-17T22:55:16;5.43;;;4.22;;
40953;SDS011;26686;50.130;8.710;2023-02-17T23:00:18;5.00;;;4.05;;
40953;SDS011;26686;50.130;8.710;2023-02-17T23:05:19;4.53;;;4.07;;
40953;SDS011;26686;50.130;8.710;2023-02-17T23:10:20;4.32;;;3.92;;
40953;SDS011;26686;50.130;8.710;2023-02-17T23:15:22;4.20;;;3.88;;
40953;SDS011;26686;50.130;8.710;2023-02-17T23:20:40;5.47;;;4.10;;
40953;SDS011;26686;50.130;8.710;2023-02-17T23:25:46;4.45;;;4.05;;
40953;SDS011;26686;50.130;8.710;2023-02-17T23:30:50;4.38;;;3.97;;
40953;SDS011;26686;50.130;8.710;2023-02-17T23:35:52;4.70;;;4.32;;
40953;SDS011;26686;50.130;8.710;2023-02-17T23:40:53;4.75;;;4.25;;
40953;SDS011;26686;50.130;8.710;2023-02-17T23:45:56;4.32;;;3.80;;
40953;SDS011;26686;50.130;8.710;2023-02-17T23:50:59;5.00;;;4.60;;
40953;SDS011;26686;50.130;8.710;2023-02-17T23:56:03;5.00;;;4.50;;
